sensor_id;sensor_type;location;lat;lon;timestamp;P1;durP1;ratioP1;P2;durP2;ratioP2
74935;SDS011;63501;55.570;37.488;2022-12-07T00:01:15;4.03;;;1.60;;
74935;SDS011;63501;55.570;37.488;2022-12-07T00:03:43;3.78;;;2.20;;
74935;SDS011;63501;55.570;37.488;2022-12-07T00:06:10;4.85;;;1.73;;
74935;SDS011;63501;55.570;37.488;2022-12-07T00:08:37;2.85;;;1.63;;
74935;SDS011;63501;55.570;37.488;2022-12-07T00:11:05;2.92;;;1.58;;
74935;SDS011;63501;55.570;37.488;2022-12-07T00:13:33;3.63;;;1.70;;
74935;SDS011;63501;55.570;37.488;2022-12-07T00:16:00;5.28;;;1.70;;
74935;SDS011;63501;55.570;37.488;2022-12-07T00:18:27;5.05;;;2.00;;
74935;SDS011;63501;55.570;37.488;2022-12-07T00:20:53;3.67;;;1.65;;
74935;SDS011;63501;55.570;37.488;2022-12-07T00:23:23;4.72;;;1.67;;
74935;SDS011;63501;55.570;37.488;2022-12-07T00:25:49;2.97;;;1.20;;
74935;SDS011;63501;55.570;37.488;2022-12-07T00:28:14;3.97;;;1.95;;
74935;SDS011;63501;55.570;37.488;2022-12-07T00:30:40;5.40;;;1.80;;
74935;SDS011;63501;55.570;37.488;2022-12-07T00:33:05;4.25;;;1.58;;
74935;SDS011;63501;55.570;37.488;2022-12-07T00:35:31;5.20;;;1.63;;
74935;SDS011;63501;55.570;37.488;2022-12-07T00:37:57;4.38;;;1.58;;
74935;SDS011;63501;55.570;37.488;2022-12-07T00:40:22;4.10;;;1.73;;
74935;SDS011;63501;55.570;37.488;2022-12-07T00:42:48;2.50;;;1.83;;
74935;SDS011;63501;55.570;37.488;2022-12-07T00:45:13;5.50;;;2.20;;
74935;SDS011;63501;55.570;37.488;2022-12-07T00:47:39;4.35;;;2.22;;
74935;SDS011;63501;55.570;37.488;2022-12-07T00:50:05;4.78;;;1.77;;
74935;SDS011;63501;55.570;37.488;2022-12-07T00:52:31;2.85;;;1.10;;
74935;SDS011;63501;55.570;37.488;2022-12-07T00:54:56;3.85;;;1.60;;
74935;SDS011;63501;55.570;37.488;2022-12-07T00:57:22;3.75;;;1.75;;
74935;SDS011;63501;55.570;37.488;2022-12-07T00:59:47;3.83;;;1.50;;
74935;SDS011;63501;55.570;37.488;2022-12-07T01:02:13;3.17;;;1.50;;
74935;SDS011;63501;55.570;37.488;2022-12-07T01:04:39;4.75;;;1.70;;
74935;SDS011;63501;55.570;37.488;2022-12-07T01:07:04;4.97;;;1.92;;
74935;SDS011;63501;55.570;37.488;2022-12-07T01:09:30;2.90;;;1.60;;
74935;SDS011;63501;55.570;37.488;2022-12-07T01:11:55;4.40;;;2.03;;
74935;SDS011;63501;55.570;37.488;2022-12-07T01:14:21;3.75;;;1.67;;
74935;SDS011;63501;55.570;37.488;2022-12-07T01:16:46;3.03;;;1.33;;
74935;SDS011;63501;55.570;37.488;2022-12-07T01:19:12;3.85;;;1.70;;
74935;SDS011;63501;55.570;37.488;2022-12-07T01:21:38;3.75;;;1.50;;
74935;SDS011;63501;55.570;37.488;2022-12-07T01:24:04;4.43;;;2.13;;
74935;SDS011;63501;55.570;37.488;2022-12-07T01:26:31;3.40;;;1.77;;
74935;SDS011;63501;55.570;37.488;2022-12-07T01:28:57;4.35;;;1.92;;
74935;SDS011;63501;55.570;37.488;2022-12-07T01:31:24;3.95;;;2.05;;
74935;SDS011;63501;55.570;37.488;2022-12-07T01:33:53;3.00;;;1.55;;
74935;SDS011;63501;55.570;37.488;2022-12-07T01:36:21;3.90;;;1.45;;
74935;SDS011;63501;55.570;37.488;2022-12-07T01:38:49;2.85;;;1.20;;
74935;SDS011;63501;55.570;37.488;2022-12-07T01:41:18;3.67;;;1.70;;
74935;SDS011;63501;55.570;37.488;2022-12-07T01:46:44;5.35;;;1.50;;
74935;SDS011;63501;55.570;37.488;2022-12-07T01:49:17;3.90;;;1.55;;
74935;SDS011;63501;55.570;37.488;2022-12-07T01:52:14;4.03;;;1.50;;
74935;SDS011;63501;55.570;37.488;2022-12-07T01:54:44;4.93;;;1.70;;
74935;SDS011;63501;55.570;37.488;2022-12-07T01:57:13;3.72;;;1.67;;
74935;SDS011;63501;55.570;37.488;2022-12-07T01:59:41;3.50;;;1.92;;
74935;SDS011;63501;55.570;37.488;2022-12-07T02:02:15;3.78;;;1.55;;
74935;SDS011;63501;55.570;37.488;2022-12-07T02:04:44;3.33;;;1.80;;
74935;SDS011;63501;55.570;37.488;2022-12-07T02:07:11;2.30;;;1.33;;
74935;SDS011;63501;55.570;37.488;2022-12-07T02:09:37;4.32;;;1.60;;
74935;SDS011;63501;55.570;37.488;2022-12-07T02:12:03;6.35;;;1.67;;
74935;SDS011;63501;55.570;37.488;2022-12-07T02:14:29;4.20;;;1.80;;
74935;SDS011;63501;55.570;37.488;2022-12-07T02:17:11;2.70;;;1.38;;
74935;SDS011;63501;55.570;37.488;2022-12-07T02:30:54;7.10;;;1.85;;
74935;SDS011;63501;55.570;37.488;2022-12-07T02:33:31;4.68;;;1.45;;
74935;SDS011;63501;55.570;37.488;2022-12-07T02:38:48;3.55;;;1.63;;
74935;SDS011;63501;55.570;37.488;2022-12-07T02:41:21;4.25;;;1.85;;
74935;SDS011;63501;55.570;37.488;2022-12-07T02:44:04;3.25;;;1.65;;
74935;SDS011;63501;55.570;37.488;2022-12-07T02:46:38;3.15;;;1.48;;
74935;SDS011;63501;55.570;37.488;2022-12-07T02:49:07;5.40;;;1.60;;
74935;SDS011;63501;55.570;37.488;2022-12-07T02:51:34;5.03;;;1.85;;
74935;SDS011;63501;55.570;37.488;2022-12-07T02:54:09;4.75;;;1.98;;
74935;SDS011;63501;55.570;37.488;2022-12-07T03:10:16;6.45;;;2.17;;
74935;SDS011;63501;55.570;37.488;2022-12-07T03:13:09;3.25;;;1.60;;
74935;SDS011;63501;55.570;37.488;2022-12-07T03:18:05;4.25;;;1.63;;
74935;SDS011;63501;55.570;37.488;2022-12-07T03:20:32;9.52;;;2.28;;
74935;SDS011;63501;55.570;37.488;2022-12-07T03:23:04;4.10;;;1.45;;
74935;SDS011;63501;55.570;37.488;2022-12-07T03:25:35;5.03;;;2.45;;
74935;SDS011;63501;55.570;37.488;2022-12-07T03:28:06;4.28;;;1.55;;
74935;SDS011;63501;55.570;37.488;2022-12-07T03:30:37;3.00;;;1.33;;
74935;SDS011;63501;55.570;37.488;2022-12-07T03:33:11;4.47;;;1.73;;
74935;SDS011;63501;55.570;37.488;2022-12-07T03:35:45;5.03;;;1.85;;
74935;SDS011;63501;55.570;37.488;2022-12-07T03:41:01;4.05;;;1.73;;
74935;SDS011;63501;55.570;37.488;2022-12-07T03:43:28;3.90;;;1.77;;
74935;SDS011;63501;55.570;37.488;2022-12-07T03:45:58;4.57;;;1.67;;
74935;SDS011;63501;55.570;37.488;2022-12-07T03:48:41;4.28;;;1.63;;
74935;SDS011;63501;55.570;37.488;2022-12-07T03:51:20;4.75;;;1.60;;
74935;SDS011;63501;55.570;37.488;2022-12-07T03:54:10;4.78;;;2.00;;
74935;SDS011;63501;55.570;37.488;2022-12-07T03:56:43;4.80;;;1.65;;
74935;SDS011;63501;55.570;37.488;2022-12-07T03:59:11;4.05;;;1.67;;
74935;SDS011;63501;55.570;37.488;2022-12-07T04:01:38;2.47;;;1.40;;
74935;SDS011;63501;55.570;37.488;2022-12-07T04:04:06;4.32;;;1.48;;
74935;SDS011;63501;55.570;37.488;2022-12-07T04:06:31;2.53;;;1.48;;
74935;SDS011;63501;55.570;37.488;2022-12-07T04:08:57;5.68;;;1.90;;
74935;SDS011;63501;55.570;37.488;2022-12-07T04:11:22;5.03;;;1.40;;
74935;SDS011;63501;55.570;37.488;2022-12-07T04:13:48;4.40;;;1.75;;
74935;SDS011;63501;55.570;37.488;2022-12-07T04:16:32;2.65;;;1.60;;
74935;SDS011;63501;55.570;37.488;2022-12-07T04:18:58;3.42;;;1.70;;
74935;SDS011;63501;55.570;37.488;2022-12-07T04:21:23;6.22;;;1.83;;
74935;SDS011;63501;55.570;37.488;2022-12-07T04:23:49;5.15;;;2.08;;
74935;SDS011;63501;55.570;37.488;2022-12-07T04:26:14;4.53;;;1.50;;
74935;SDS011;63501;55.570;37.488;2022-12-07T04:28:40;4.32;;;2.30;;
74935;SDS011;63501;55.570;37.488;2022-12-07T04:31:06;3.83;;;1.75;;
74935;SDS011;63501;55.570;37.488;2022-12-07T04:33:31;3.10;;;1.35;;
74935;SDS011;63501;55.570;37.488;2022-12-07T04:35:57;2.95;;;1.55;;
74935;SDS011;63501;55.570;37.488;2022-12-07T04:38:22;4.95;;;1.80;;
74935;SDS011;63501;55.570;37.488;2022-12-07T04:40:48;3.78;;;1.50;;
74935;SDS011;63501;55.570;37.488;2022-12-07T04:43:14;3.30;;;1.42;;
74935;SDS011;63501;55.570;37.488;2022-12-07T04:45:39;3.70;;;1.50;;
74935;SDS011;63501;55.570;37.488;2022-12-07T04:48:05;5.57;;;1.85;;
74935;SDS011;63501;55.570;37.488;2022-12-07T04:50:31;3.15;;;1.70;;
74935;SDS011;63501;55.570;37.488;2022-12-07T04:52:57;2.97;;;1.60;;
74935;SDS011;63501;55.570;37.488;2022-12-07T04:55:22;1.92;;;1.00;;
74935;SDS011;63501;55.570;37.488;2022-12-07T04:57:48;4.25;;;1.90;;
74935;SDS011;63501;55.570;37.488;2022-12-07T05:00:13;2.92;;;1.77;;
74935;SDS011;63501;55.570;37.488;2022-12-07T05:02:39;3.53;;;1.77;;
74935;SDS011;63501;55.570;37.488;2022-12-07T05:05:05;3.30;;;1.35;;
74935;SDS011;63501;55.570;37.488;2022-12-07T05:07:30;5.50;;;1.80;;
74935;SDS011;63501;55.570;37.488;2022-12-07T05:09:56;5.18;;;1.67;;
74935;SDS011;63501;55.570;37.488;2022-12-07T05:12:21;3.13;;;1.70;;
74935;SDS011;63501;55.570;37.488;2022-12-07T05:14:47;2.78;;;1.55;;
74935;SDS011;63501;55.570;37.488;2022-12-07T05:17:13;5.03;;;1.65;;
74935;SDS011;63501;55.570;37.488;2022-12-07T05:19:39;4.72;;;1.67;;
74935;SDS011;63501;55.570;37.488;2022-12-07T05:22:04;2.28;;;1.30;;
74935;SDS011;63501;55.570;37.488;2022-12-07T05:24:30;3.15;;;1.25;;
74935;SDS011;63501;55.570;37.488;2022-12-07T05:26:55;5.13;;;1.75;;
74935;SDS011;63501;55.570;37.488;2022-12-07T05:29:21;4.63;;;1.90;;
74935;SDS011;63501;55.570;37.488;2022-12-07T05:31:47;3.75;;;1.60;;
74935;SDS011;63501;55.570;37.488;2022-12-07T05:34:12;3.42;;;1.63;;
74935;SDS011;63501;55.570;37.488;2022-12-07T05:36:38;4.93;;;2.15;;
74935;SDS011;63501;55.570;37.488;2022-12-07T05:39:05;3.17;;;1.50;;
74935;SDS011;63501;55.570;37.488;2022-12-07T05:41:32;4.95;;;2.20;;
74935;SDS011;63501;55.570;37.488;2022-12-07T05:44:16;4.65;;;1.40;;
74935;SDS011;63501;55.570;37.488;2022-12-07T05:46:42;6.05;;;1.80;;
74935;SDS011;63501;55.570;37.488;2022-12-07T05:51:35;4.63;;;2.08;;
74935;SDS011;63501;55.570;37.488;2022-12-07T05:54:01;3.92;;;1.35;;
74935;SDS011;63501;55.570;37.488;2022-12-07T05:56:27;3.28;;;1.55;;
74935;SDS011;63501;55.570;37.488;2022-12-07T05:58:53;3.70;;;1.75;;
74935;SDS011;63501;55.570;37.488;2022-12-07T06:01:37;3.15;;;1.70;;
74935;SDS011;63501;55.570;37.488;2022-12-07T06:04:03;4.32;;;1.63;;
74935;SDS011;63501;55.570;37.488;2022-12-07T06:06:28;5.15;;;2.00;;
74935;SDS011;63501;55.570;37.488;2022-12-07T06:08:54;5.20;;;2.25;;
74935;SDS011;63501;55.570;37.488;2022-12-07T06:11:20;3.42;;;1.80;;
74935;SDS011;63501;55.570;37.488;2022-12-07T06:14:04;4.60;;;2.38;;
74935;SDS011;63501;55.570;37.488;2022-12-07T06:16:30;3.05;;;1.70;;
74935;SDS011;63501;55.570;37.488;2022-12-07T06:18:55;3.10;;;1.73;;
74935;SDS011;63501;55.570;37.488;2022-12-07T06:21:21;7.10;;;2.67;;
74935;SDS011;63501;55.570;37.488;2022-12-07T06:23:47;3.17;;;2.00;;
74935;SDS011;63501;55.570;37.488;2022-12-07T06:26:13;5.13;;;2.05;;
74935;SDS011;63501;55.570;37.488;2022-12-07T06:28:39;7.25;;;2.90;;
74935;SDS011;63501;55.570;37.488;2022-12-07T06:31:05;4.53;;;1.70;;
74935;SDS011;63501;55.570;37.488;2022-12-07T06:33:31;5.00;;;1.92;;
74935;SDS011;63501;55.570;37.488;2022-12-07T06:35:56;4.55;;;2.00;;
74935;SDS011;63501;55.570;37.488;2022-12-07T06:38:22;4.43;;;1.83;;
74935;SDS011;63501;55.570;37.488;2022-12-07T06:40:48;4.65;;;2.10;;
74935;SDS011;63501;55.570;37.488;2022-12-07T06:43:13;5.22;;;2.53;;
74935;SDS011;63501;55.570;37.488;2022-12-07T06:45:40;3.58;;;2.10;;
74935;SDS011;63501;55.570;37.488;2022-12-07T06:48:05;4.25;;;2.08;;
74935;SDS011;63501;55.570;37.488;2022-12-07T06:50:31;6.05;;;2.78;;
74935;SDS011;63501;55.570;37.488;2022-12-07T06:52:57;6.07;;;2.20;;
74935;SDS011;63501;55.570;37.488;2022-12-07T06:55:22;7.53;;;3.08;;
74935;SDS011;63501;55.570;37.488;2022-12-07T06:57:48;4.18;;;2.33;;
74935;SDS011;63501;55.570;37.488;2022-12-07T07:00:13;9.10;;;2.70;;
74935;SDS011;63501;55.570;37.488;2022-12-07T07:02:40;5.55;;;2.40;;
74935;SDS011;63501;55.570;37.488;2022-12-07T07:05:05;5.72;;;2.47;;
74935;SDS011;63501;55.570;37.488;2022-12-07T07:07:31;4.80;;;1.90;;
74935;SDS011;63501;55.570;37.488;2022-12-07T07:09:57;6.63;;;2.70;;
74935;SDS011;63501;55.570;37.488;2022-12-07T07:12:22;5.65;;;2.58;;
74935;SDS011;63501;55.570;37.488;2022-12-07T07:14:48;6.78;;;2.55;;
74935;SDS011;63501;55.570;37.488;2022-12-07T07:17:13;5.53;;;2.30;;
74935;SDS011;63501;55.570;37.488;2022-12-07T07:19:39;6.43;;;2.67;;
74935;SDS011;63501;55.570;37.488;2022-12-07T07:22:05;4.47;;;2.20;;
74935;SDS011;63501;55.570;37.488;2022-12-07T07:24:30;6.35;;;2.38;;
74935;SDS011;63501;55.570;37.488;2022-12-07T07:26:56;5.93;;;2.42;;
74935;SDS011;63501;55.570;37.488;2022-12-07T07:29:21;5.72;;;2.50;;
74935;SDS011;63501;55.570;37.488;2022-12-07T07:31:47;6.75;;;2.65;;
74935;SDS011;63501;55.570;37.488;2022-12-07T07:34:13;7.55;;;2.28;;
74935;SDS011;63501;55.570;37.488;2022-12-07T07:36:38;6.68;;;2.63;;
74935;SDS011;63501;55.570;37.488;2022-12-07T07:39:04;7.47;;;2.92;;
74935;SDS011;63501;55.570;37.488;2022-12-07T07:41:30;6.25;;;2.33;;
74935;SDS011;63501;55.570;37.488;2022-12-07T07:43:55;5.60;;;2.38;;
74935;SDS011;63501;55.570;37.488;2022-12-07T07:46:21;6.60;;;2.30;;
74935;SDS011;63501;55.570;37.488;2022-12-07T07:48:47;7.22;;;2.65;;
74935;SDS011;63501;55.570;37.488;2022-12-07T07:51:12;7.53;;;3.00;;
74935;SDS011;63501;55.570;37.488;2022-12-07T07:53:38;14.38;;;3.40;;
74935;SDS011;63501;55.570;37.488;2022-12-07T07:56:03;5.95;;;2.88;;
74935;SDS011;63501;55.570;37.488;2022-12-07T07:58:29;5.53;;;2.58;;
74935;SDS011;63501;55.570;37.488;2022-12-07T08:00:55;6.45;;;2.28;;
74935;SDS011;63501;55.570;37.488;2022-12-07T08:03:20;10.88;;;3.75;;
74935;SDS011;63501;55.570;37.488;2022-12-07T08:05:46;6.05;;;2.60;;
74935;SDS011;63501;55.570;37.488;2022-12-07T08:08:11;6.75;;;2.92;;
74935;SDS011;63501;55.570;37.488;2022-12-07T08:10:37;7.82;;;3.38;;
74935;SDS011;63501;55.570;37.488;2022-12-07T08:13:02;8.02;;;3.20;;
74935;SDS011;63501;55.570;37.488;2022-12-07T08:15:39;6.35;;;2.40;;
74935;SDS011;63501;55.570;37.488;2022-12-07T08:18:06;7.50;;;2.58;;
74935;SDS011;63501;55.570;37.488;2022-12-07T08:20:33;5.45;;;2.60;;
74935;SDS011;63501;55.570;37.488;2022-12-07T08:23:00;7.38;;;2.75;;
74935;SDS011;63501;55.570;37.488;2022-12-07T08:25:26;6.18;;;2.53;;
74935;SDS011;63501;55.570;37.488;2022-12-07T08:27:52;6.65;;;2.83;;
74935;SDS011;63501;55.570;37.488;2022-12-07T08:30:18;8.38;;;3.38;;
74935;SDS011;63501;55.570;37.488;2022-12-07T08:32:45;6.97;;;2.30;;
74935;SDS011;63501;55.570;37.488;2022-12-07T08:35:11;8.85;;;2.92;;
74935;SDS011;63501;55.570;37.488;2022-12-07T08:37:38;8.70;;;2.92;;
74935;SDS011;63501;55.570;37.488;2022-12-07T08:40:04;6.63;;;2.40;;
74935;SDS011;63501;55.570;37.488;2022-12-07T08:42:30;6.65;;;2.78;;
74935;SDS011;63501;55.570;37.488;2022-12-07T08:45:12;5.53;;;3.00;;
74935;SDS011;63501;55.570;37.488;2022-12-07T08:47:58;7.60;;;3.25;;
74935;SDS011;63501;55.570;37.488;2022-12-07T08:50:31;5.95;;;2.00;;
74935;SDS011;63501;55.570;37.488;2022-12-07T08:52:58;6.40;;;3.13;;
74935;SDS011;63501;55.570;37.488;2022-12-07T08:55:25;8.05;;;2.78;;
74935;SDS011;63501;55.570;37.488;2022-12-07T08:57:52;8.70;;;2.65;;
74935;SDS011;63501;55.570;37.488;2022-12-07T09:00:18;6.47;;;2.05;;
74935;SDS011;63501;55.570;37.488;2022-12-07T09:02:45;7.07;;;2.70;;
74935;SDS011;63501;55.570;37.488;2022-12-07T09:05:11;5.25;;;2.80;;
74935;SDS011;63501;55.570;37.488;2022-12-07T09:07:39;6.28;;;2.50;;
74935;SDS011;63501;55.570;37.488;2022-12-07T09:10:07;6.47;;;2.45;;
74935;SDS011;63501;55.570;37.488;2022-12-07T09:12:33;7.75;;;2.55;;
74935;SDS011;63501;55.570;37.488;2022-12-07T09:14:59;5.15;;;2.03;;
74935;SDS011;63501;55.570;37.488;2022-12-07T09:17:25;5.30;;;2.40;;
74935;SDS011;63501;55.570;37.488;2022-12-07T09:19:51;8.30;;;2.75;;
74935;SDS011;63501;55.570;37.488;2022-12-07T09:22:17;6.93;;;2.45;;
74935;SDS011;63501;55.570;37.488;2022-12-07T09:24:43;7.55;;;2.65;;
74935;SDS011;63501;55.570;37.488;2022-12-07T09:27:10;5.13;;;2.30;;
74935;SDS011;63501;55.570;37.488;2022-12-07T09:29:36;6.57;;;2.65;;
74935;SDS011;63501;55.570;37.488;2022-12-07T09:32:02;7.70;;;2.20;;
74935;SDS011;63501;55.570;37.488;2022-12-07T09:34:30;4.78;;;2.17;;
74935;SDS011;63501;55.570;37.488;2022-12-07T09:36:57;5.00;;;2.58;;
74935;SDS011;63501;55.570;37.488;2022-12-07T09:39:22;5.88;;;3.08;;
74935;SDS011;63501;55.570;37.488;2022-12-07T09:41:48;4.78;;;2.20;;
74935;SDS011;63501;55.570;37.488;2022-12-07T09:44:17;4.90;;;2.38;;
74935;SDS011;63501;55.570;37.488;2022-12-07T09:46:47;7.63;;;2.53;;
74935;SDS011;63501;55.570;37.488;2022-12-07T09:49:16;4.75;;;2.60;;
74935;SDS011;63501;55.570;37.488;2022-12-07T09:51:45;5.90;;;2.42;;
74935;SDS011;63501;55.570;37.488;2022-12-07T09:54:15;3.55;;;1.80;;
74935;SDS011;63501;55.570;37.488;2022-12-07T09:56:42;4.95;;;2.03;;
74935;SDS011;63501;55.570;37.488;2022-12-07T09:59:12;6.63;;;2.60;;
74935;SDS011;63501;55.570;37.488;2022-12-07T10:01:42;5.85;;;2.30;;
74935;SDS011;63501;55.570;37.488;2022-12-07T10:04:11;4.93;;;2.80;;
74935;SDS011;63501;55.570;37.488;2022-12-07T10:06:48;4.70;;;2.40;;
74935;SDS011;63501;55.570;37.488;2022-12-07T10:09:16;4.93;;;2.58;;
74935;SDS011;63501;55.570;37.488;2022-12-07T10:14:37;4.45;;;2.40;;
74935;SDS011;63501;55.570;37.488;2022-12-07T10:17:39;6.85;;;2.50;;
74935;SDS011;63501;55.570;37.488;2022-12-07T10:20:19;4.60;;;2.53;;
74935;SDS011;63501;55.570;37.488;2022-12-07T10:25:26;7.43;;;3.20;;
74935;SDS011;63501;55.570;37.488;2022-12-07T10:27:57;8.55;;;2.88;;
74935;SDS011;63501;55.570;37.488;2022-12-07T10:30:54;6.13;;;2.85;;
74935;SDS011;63501;55.570;37.488;2022-12-07T10:35:54;4.63;;;2.20;;
74935;SDS011;63501;55.570;37.488;2022-12-07T10:38:20;7.97;;;3.17;;
74935;SDS011;63501;55.570;37.488;2022-12-07T10:40:46;8.70;;;3.53;;
74935;SDS011;63501;55.570;37.488;2022-12-07T10:51:23;6.15;;;2.80;;
74935;SDS011;63501;55.570;37.488;2022-12-07T10:53:54;4.38;;;2.13;;
74935;SDS011;63501;55.570;37.488;2022-12-07T10:56:46;6.93;;;2.63;;
74935;SDS011;63501;55.570;37.488;2022-12-07T11:05:13;6.07;;;2.72;;
74935;SDS011;63501;55.570;37.488;2022-12-07T11:10:50;5.85;;;2.60;;
74935;SDS011;63501;55.570;37.488;2022-12-07T11:13:52;5.35;;;2.42;;
74935;SDS011;63501;55.570;37.488;2022-12-07T11:19:20;4.50;;;2.40;;
74935;SDS011;63501;55.570;37.488;2022-12-07T11:22:16;5.85;;;2.50;;
74935;SDS011;63501;55.570;37.488;2022-12-07T11:27:41;7.35;;;3.00;;
74935;SDS011;63501;55.570;37.488;2022-12-07T11:30:17;6.82;;;2.78;;
74935;SDS011;63501;55.570;37.488;2022-12-07T11:35:55;5.38;;;2.95;;
74935;SDS011;63501;55.570;37.488;2022-12-07T11:38:43;7.20;;;3.05;;
74935;SDS011;63501;55.570;37.488;2022-12-07T11:41:20;6.43;;;2.80;;
74935;SDS011;63501;55.570;37.488;2022-12-07T11:44:05;6.68;;;3.08;;
74935;SDS011;63501;55.570;37.488;2022-12-07T11:46:51;6.68;;;3.10;;
74935;SDS011;63501;55.570;37.488;2022-12-07T11:49:43;5.03;;;2.70;;
74935;SDS011;63501;55.570;37.488;2022-12-07T11:52:25;8.20;;;3.33;;
74935;SDS011;63501;55.570;37.488;2022-12-07T11:54:57;6.90;;;3.15;;
74935;SDS011;63501;55.570;37.488;2022-12-07T11:57:40;7.60;;;3.63;;
74935;SDS011;63501;55.570;37.488;2022-12-07T12:00:12;6.22;;;2.95;;
74935;SDS011;63501;55.570;37.488;2022-12-07T12:05:38;5.63;;;2.70;;
74935;SDS011;63501;55.570;37.488;2022-12-07T12:08:13;6.95;;;2.97;;
74935;SDS011;63501;55.570;37.488;2022-12-07T12:22:13;6.53;;;3.35;;
74935;SDS011;63501;55.570;37.488;2022-12-07T12:24:43;8.98;;;3.50;;
74935;SDS011;63501;55.570;37.488;2022-12-07T12:27:15;8.93;;;3.78;;
74935;SDS011;63501;55.570;37.488;2022-12-07T12:29:50;9.23;;;4.10;;
74935;SDS011;63501;55.570;37.488;2022-12-07T12:32:24;7.82;;;2.92;;
74935;SDS011;63501;55.570;37.488;2022-12-07T12:37:54;9.98;;;3.58;;
74935;SDS011;63501;55.570;37.488;2022-12-07T12:42:50;5.97;;;3.05;;
74935;SDS011;63501;55.570;37.488;2022-12-07T12:45:18;11.10;;;4.78;;
74935;SDS011;63501;55.570;37.488;2022-12-07T12:48:02;7.65;;;3.65;;
74935;SDS011;63501;55.570;37.488;2022-12-07T12:50:33;7.07;;;3.08;;
74935;SDS011;63501;55.570;37.488;2022-12-07T12:53:03;8.93;;;4.07;;
74935;SDS011;63501;55.570;37.488;2022-12-07T13:03:55;9.82;;;3.90;;
74935;SDS011;63501;55.570;37.488;2022-12-07T13:11:19;10.23;;;3.40;;
74935;SDS011;63501;55.570;37.488;2022-12-07T13:13:56;11.63;;;4.05;;
74935;SDS011;63501;55.570;37.488;2022-12-07T13:16:58;8.15;;;3.45;;
74935;SDS011;63501;55.570;37.488;2022-12-07T13:19:58;7.45;;;3.50;;
74935;SDS011;63501;55.570;37.488;2022-12-07T13:22:53;9.02;;;3.83;;
74935;SDS011;63501;55.570;37.488;2022-12-07T13:27:43;9.02;;;4.10;;
74935;SDS011;63501;55.570;37.488;2022-12-07T13:30:18;8.38;;;3.80;;
74935;SDS011;63501;55.570;37.488;2022-12-07T13:32:55;9.70;;;3.92;;
74935;SDS011;63501;55.570;37.488;2022-12-07T13:37:56;8.32;;;3.28;;
74935;SDS011;63501;55.570;37.488;2022-12-07T13:40:23;7.60;;;3.08;;
74935;SDS011;63501;55.570;37.488;2022-12-07T13:42:56;7.05;;;3.67;;
74935;SDS011;63501;55.570;37.488;2022-12-07T13:45:31;8.85;;;3.25;;
74935;SDS011;63501;55.570;37.488;2022-12-07T13:48:32;6.55;;;3.08;;
74935;SDS011;63501;55.570;37.488;2022-12-07T13:51:02;10.43;;;3.05;;
74935;SDS011;63501;55.570;37.488;2022-12-07T13:53:29;8.95;;;3.53;;
74935;SDS011;63501;55.570;37.488;2022-12-07T13:55:56;8.85;;;3.45;;
74935;SDS011;63501;55.570;37.488;2022-12-07T13:58:23;10.73;;;4.20;;
74935;SDS011;63501;55.570;37.488;2022-12-07T14:00:50;9.88;;;3.47;;
74935;SDS011;63501;55.570;37.488;2022-12-07T14:05:42;9.05;;;3.38;;
74935;SDS011;63501;55.570;37.488;2022-12-07T14:10:56;8.32;;;3.92;;
74935;SDS011;63501;55.570;37.488;2022-12-07T14:13:27;9.75;;;3.45;;
74935;SDS011;63501;55.570;37.488;2022-12-07T14:18:50;5.95;;;3.08;;
74935;SDS011;63501;55.570;37.488;2022-12-07T14:21:16;5.28;;;3.13;;
74935;SDS011;63501;55.570;37.488;2022-12-07T14:24:07;9.48;;;3.30;;
74935;SDS011;63501;55.570;37.488;2022-12-07T14:26:33;8.13;;;3.70;;
74935;SDS011;63501;55.570;37.488;2022-12-07T14:31:49;7.90;;;3.55;;
74935;SDS011;63501;55.570;37.488;2022-12-07T14:34:16;6.60;;;3.33;;
74935;SDS011;63501;55.570;37.488;2022-12-07T14:36:42;6.95;;;2.95;;
74935;SDS011;63501;55.570;37.488;2022-12-07T14:39:07;11.90;;;3.83;;
74935;SDS011;63501;55.570;37.488;2022-12-07T14:41:33;9.60;;;3.92;;
74935;SDS011;63501;55.570;37.488;2022-12-07T14:44:17;9.73;;;3.63;;
74935;SDS011;63501;55.570;37.488;2022-12-07T14:46:45;12.48;;;3.85;;
74935;SDS011;63501;55.570;37.488;2022-12-07T14:49:10;6.25;;;3.15;;
74935;SDS011;63501;55.570;37.488;2022-12-07T14:51:37;7.85;;;3.10;;
74935;SDS011;63501;55.570;37.488;2022-12-07T14:54:05;6.97;;;2.92;;
74935;SDS011;63501;55.570;37.488;2022-12-07T14:56:36;8.25;;;3.83;;
74935;SDS011;63501;55.570;37.488;2022-12-07T14:59:02;13.18;;;3.92;;
74935;SDS011;63501;55.570;37.488;2022-12-07T15:01:28;8.20;;;3.45;;
74935;SDS011;63501;55.570;37.488;2022-12-07T15:03:53;11.80;;;3.70;;
74935;SDS011;63501;55.570;37.488;2022-12-07T15:06:19;9.95;;;3.70;;
74935;SDS011;63501;55.570;37.488;2022-12-07T15:08:44;8.07;;;3.40;;
74935;SDS011;63501;55.570;37.488;2022-12-07T15:11:14;6.32;;;2.88;;
74935;SDS011;63501;55.570;37.488;2022-12-07T15:13:40;7.40;;;3.20;;
74935;SDS011;63501;55.570;37.488;2022-12-07T15:16:25;9.00;;;3.35;;
74935;SDS011;63501;55.570;37.488;2022-12-07T15:18:50;8.35;;;2.88;;
74935;SDS011;63501;55.570;37.488;2022-12-07T15:21:16;8.43;;;3.53;;
74935;SDS011;63501;55.570;37.488;2022-12-07T15:23:42;8.00;;;3.35;;
74935;SDS011;63501;55.570;37.488;2022-12-07T15:26:09;10.25;;;3.42;;
74935;SDS011;63501;55.570;37.488;2022-12-07T15:28:36;9.20;;;3.80;;
74935;SDS011;63501;55.570;37.488;2022-12-07T15:31:01;7.07;;;3.55;;
74935;SDS011;63501;55.570;37.488;2022-12-07T15:33:27;8.55;;;3.10;;
74935;SDS011;63501;55.570;37.488;2022-12-07T15:35:53;9.57;;;3.72;;
74935;SDS011;63501;55.570;37.488;2022-12-07T15:38:19;6.80;;;3.10;;
74935;SDS011;63501;55.570;37.488;2022-12-07T15:40:47;7.40;;;2.75;;
74935;SDS011;63501;55.570;37.488;2022-12-07T15:43:13;8.43;;;3.47;;
74935;SDS011;63501;55.570;37.488;2022-12-07T15:45:57;8.13;;;3.13;;
74935;SDS011;63501;55.570;37.488;2022-12-07T15:48:24;10.02;;;3.85;;
74935;SDS011;63501;55.570;37.488;2022-12-07T15:50:50;9.90;;;3.42;;
74935;SDS011;63501;55.570;37.488;2022-12-07T15:53:16;7.70;;;3.10;;
74935;SDS011;63501;55.570;37.488;2022-12-07T15:55:42;8.25;;;3.63;;
74935;SDS011;63501;55.570;37.488;2022-12-07T15:58:08;9.68;;;3.38;;
74935;SDS011;63501;55.570;37.488;2022-12-07T16:00:33;7.28;;;2.50;;
74935;SDS011;63501;55.570;37.488;2022-12-07T16:02:59;6.53;;;2.65;;
74935;SDS011;63501;55.570;37.488;2022-12-07T16:05:24;7.97;;;2.63;;
74935;SDS011;63501;55.570;37.488;2022-12-07T16:07:50;8.80;;;3.22;;
74935;SDS011;63501;55.570;37.488;2022-12-07T16:10:16;7.85;;;3.38;;
74935;SDS011;63501;55.570;37.488;2022-12-07T16:12:41;9.30;;;3.83;;
74935;SDS011;63501;55.570;37.488;2022-12-07T16:15:07;10.85;;;3.50;;
74935;SDS011;63501;55.570;37.488;2022-12-07T16:17:33;9.52;;;3.42;;
74935;SDS011;63501;55.570;37.488;2022-12-07T16:19:58;10.75;;;3.65;;
74935;SDS011;63501;55.570;37.488;2022-12-07T16:22:24;11.80;;;4.00;;
74935;SDS011;63501;55.570;37.488;2022-12-07T16:24:49;11.05;;;3.63;;
74935;SDS011;63501;55.570;37.488;2022-12-07T16:27:15;9.18;;;3.42;;
74935;SDS011;63501;55.570;37.488;2022-12-07T16:29:41;10.80;;;4.45;;
74935;SDS011;63501;55.570;37.488;2022-12-07T16:32:06;9.23;;;3.88;;
74935;SDS011;63501;55.570;37.488;2022-12-07T16:34:32;8.82;;;4.03;;
74935;SDS011;63501;55.570;37.488;2022-12-07T16:36:57;8.55;;;3.97;;
74935;SDS011;63501;55.570;37.488;2022-12-07T16:39:23;8.15;;;3.47;;
74935;SDS011;63501;55.570;37.488;2022-12-07T16:41:49;8.20;;;3.45;;
74935;SDS011;63501;55.570;37.488;2022-12-07T16:44:15;8.02;;;3.63;;
74935;SDS011;63501;55.570;37.488;2022-12-07T16:46:41;7.47;;;3.70;;